createdAt,value
2022-08-16T00:01:43.889Z,5.70
2022-08-16T00:04:35.287Z,17.25
2022-08-16T00:07:24.812Z,5.88
2022-08-16T00:10:20.668Z,5.93
2022-08-16T00:13:12.200Z,4.80
2022-08-16T00:17:05.886Z,5.25
2022-08-16T00:19:14.760Z,4.40
2022-08-16T00:22:12.775Z,5.13
2022-08-16T00:25:05.310Z,4.85
2022-08-16T00:27:55.138Z,4.50
2022-08-16T00:30:45.223Z,3.78
2022-08-16T00:33:37.377Z,3.83
2022-08-16T00:36:27.634Z,3.40
2022-08-16T00:39:20.111Z,3.38
2022-08-16T00:42:10.951Z,3.55
2022-08-16T00:45:37.549Z,3.25
2022-08-16T00:48:47.900Z,3.08
2022-08-16T00:51:42.742Z,3.67
2022-08-16T00:54:33.822Z,2.85
2022-08-16T00:57:23.968Z,2.20
2022-08-16T01:00:13.991Z,2.35
2022-08-16T01:03:13.934Z,5.40
2022-08-16T01:06:40.592Z,2.50
2022-08-16T01:09:15.689Z,5.03
2022-08-16T01:12:10.570Z,3.03
2022-08-16T01:15:01.152Z,3.22
2022-08-16T01:17:55.805Z,3.22
2022-08-16T01:21:03.342Z,3.20
2022-08-16T01:24:52.397Z,3.30
2022-08-16T01:27:53.361Z,3.92
2022-08-16T01:30:49.800Z,4.70
2022-08-16T01:33:40.145Z,5.40
2022-08-16T01:36:35.679Z,6.13
2022-08-16T01:39:25.934Z,6.00
2022-08-16T01:42:19.286Z,6.10
2022-08-16T01:45:10.528Z,5.15
2022-08-16T01:48:00.447Z,5.63
2022-08-16T01:51:09.465Z,5.47
2022-08-16T01:54:03.235Z,4.95
2022-08-16T01:56:54.327Z,5.68
2022-08-16T01:59:46.295Z,5.32
2022-08-16T02:02:42.541Z,7.65
2022-08-16T02:05:32.415Z,6.47
2022-08-16T02:08:33.050Z,5.03
2022-08-16T02:11:25.682Z,4.80
2022-08-16T02:14:36.512Z,4.75
2022-08-16T02:17:26.245Z,5.38
2022-08-16T02:20:26.193Z,4.97
2022-08-16T02:23:17.443Z,3.83
2022-08-16T02:26:08.793Z,3.72
2022-08-16T02:29:05.350Z,4.35
2022-08-16T02:32:50.365Z,4.22
2022-08-16T02:35:15.217Z,3.55
2022-08-16T02:38:08.913Z,3.45
2022-08-16T02:41:07.282Z,3.53
2022-08-16T02:44:02.820Z,2.60
2022-08-16T02:46:53.789Z,2.67
2022-08-16T02:49:59.121Z,2.40
2022-08-16T02:52:56.315Z,2.55
2022-08-16T02:55:46.336Z,2.47
2022-08-16T02:58:40.622Z,2.33
2022-08-16T03:01:37.760Z,2.53
2022-08-16T03:04:51.234Z,2.60
2022-08-16T03:07:50.458Z,2.42
2022-08-16T03:10:41.726Z,3.38
2022-08-16T03:13:40.493Z,3.17
2022-08-16T03:16:38.939Z,3.63
2022-08-16T03:19:56.542Z,3.78
2022-08-16T03:22:45.786Z,2.83
2022-08-16T03:25:44.020Z,3.30
2022-08-16T03:28:36.559Z,3.80
2022-08-16T03:31:34.706Z,3.05
2022-08-16T03:34:32.509Z,4.15
2022-08-16T03:37:23.188Z,3.45
2022-08-16T03:40:31.785Z,3.55
2022-08-16T03:43:23.502Z,3.17
2022-08-16T03:46:44.997Z,4.03
2022-08-16T03:49:46.449Z,3.40
2022-08-16T03:52:36.966Z,3.17
2022-08-16T03:55:45.521Z,3.35
2022-08-16T03:58:38.398Z,3.00
2022-08-16T04:01:29.881Z,2.90
2022-08-16T04:04:32.449Z,3.50
2022-08-16T04:07:22.622Z,2.95
2022-08-16T04:10:36.329Z,5.90
2022-08-16T04:14:00.745Z,7.75
2022-08-16T04:16:39.342Z,4.80
2022-08-16T04:19:54.774Z,3.67
2022-08-16T04:22:48.879Z,3.80
2022-08-16T04:25:40.653Z,3.58
2022-08-16T04:28:53.193Z,3.03
2022-08-16T04:31:41.782Z,2.65
2022-08-16T04:34:39.644Z,3.95
2022-08-16T04:37:30.870Z,4.40
2022-08-16T04:40:31.434Z,2.60
2022-08-16T04:43:21.758Z,2.80
2022-08-16T04:46:29.944Z,4.57
2022-08-16T04:49:28.375Z,3.10
2022-08-16T04:52:36.341Z,4.03
2022-08-16T04:55:37.553Z,3.60
2022-08-16T04:58:45.275Z,4.03
2022-08-16T05:01:58.856Z,3.50
2022-08-16T05:04:49.728Z,5.28
2022-08-16T05:07:39.285Z,6.45
2022-08-16T05:10:48.899Z,9.00
2022-08-16T05:13:42.860Z,8.90
2022-08-16T05:16:44.277Z,8.45
2022-08-16T05:19:35.899Z,7.13
2022-08-16T05:22:37.728Z,5.10
2022-08-16T05:25:40.688Z,4.50
2022-08-16T05:28:39.054Z,3.15
2022-08-16T05:31:32.580Z,3.03
2022-08-16T05:34:26.594Z,2.80
2022-08-16T05:37:16.630Z,2.95
2022-08-16T05:40:13.074Z,3.20
2022-08-16T05:43:04.005Z,2.70
2022-08-16T05:45:54.781Z,2.60
2022-08-16T05:48:46.095Z,2.30
2022-08-16T05:51:47.957Z,2.90
2022-08-16T05:54:46.821Z,2.80
2022-08-16T05:57:40.521Z,2.40
2022-08-16T06:00:34.379Z,3.17
2022-08-16T06:03:24.522Z,2.10
2022-08-16T06:06:29.011Z,3.13
2022-08-16T06:09:20.800Z,2.60
2022-08-16T06:12:26.946Z,2.63
2022-08-16T06:15:23.011Z,2.60
2022-08-16T06:18:12.653Z,3.00
2022-08-16T06:21:02.545Z,2.60
2022-08-16T06:23:54.304Z,2.83
2022-08-16T06:26:57.715Z,2.70
2022-08-16T06:29:53.290Z,3.35
2022-08-16T06:32:48.489Z,3.65
2022-08-16T06:35:41.707Z,2.85
2022-08-16T06:38:33.756Z,3.50
2022-08-16T06:41:39.841Z,2.28
2022-08-16T06:44:42.119Z,2.90
2022-08-16T06:47:53.747Z,2.90
2022-08-16T06:50:51.516Z,2.78
2022-08-16T06:53:41.955Z,3.50
2022-08-16T06:56:31.693Z,2.75
2022-08-16T06:59:32.133Z,3.38
2022-08-16T07:02:51.687Z,2.95
2022-08-16T07:05:42.512Z,2.72
2022-08-16T07:08:47.829Z,2.63
2022-08-16T07:11:47.545Z,2.40
2022-08-16T07:14:50.460Z,2.70
2022-08-16T07:17:41.353Z,2.15
2022-08-16T07:20:47.043Z,2.80
2022-08-16T07:23:39.329Z,3.03
2022-08-16T07:26:32.498Z,3.28
2022-08-16T07:29:23.450Z,2.92
2022-08-16T07:32:14.302Z,2.50
2022-08-16T07:35:03.968Z,2.58
2022-08-16T07:37:53.268Z,3.58
2022-08-16T07:40:59.507Z,4.00
2022-08-16T07:43:52.642Z,5.45
2022-08-16T07:46:43.869Z,3.42
2022-08-16T07:49:39.285Z,4.28
2022-08-16T07:52:43.861Z,4.30
2022-08-16T07:55:45.620Z,3.85
2022-08-16T07:58:37.719Z,5.55
2022-08-16T08:01:33.388Z,5.35
2022-08-16T08:04:25.187Z,7.05
2022-08-16T08:07:27.490Z,4.95
2022-08-16T08:10:29.390Z,6.63
2022-08-16T08:13:28.916Z,5.05
2022-08-16T08:16:37.966Z,5.05
2022-08-16T08:19:56.488Z,3.50
2022-08-16T08:22:48.879Z,4.93
2022-08-16T08:25:54.537Z,4.45
2022-08-16T08:28:49.569Z,3.42
2022-08-16T08:31:42.580Z,3.58
2022-08-16T08:34:33.763Z,4.13
2022-08-16T08:37:24.557Z,4.00
2022-08-16T08:40:24.233Z,5.00
2022-08-16T08:43:18.917Z,4.38
2022-08-16T08:46:21.349Z,4.22
2022-08-16T08:49:12.623Z,3.95
2022-08-16T08:52:08.188Z,4.28
2022-08-16T08:54:59.990Z,4.28
2022-08-16T08:57:50.601Z,4.50
2022-08-16T09:00:51.304Z,3.47
2022-08-16T09:03:43.111Z,3.28
2022-08-16T09:06:33.980Z,4.07
2022-08-16T09:09:33.730Z,4.10
2022-08-16T09:12:35.468Z,4.55
2022-08-16T09:15:41.247Z,6.47
2022-08-16T09:18:35.227Z,5.30
2022-08-16T09:21:31.367Z,3.65
2022-08-16T09:24:51.598Z,3.92
2022-08-16T09:27:57.098Z,4.32
2022-08-16T09:30:43.948Z,3.95
2022-08-16T09:33:37.185Z,5.53
2022-08-16T09:36:34.376Z,6.95
2022-08-16T09:39:24.755Z,4.10
2022-08-16T09:42:56.183Z,4.28
2022-08-16T09:45:43.915Z,3.90
2022-08-16T09:48:44.194Z,4.80
2022-08-16T09:51:41.249Z,5.88
2022-08-16T09:54:32.593Z,4.75
2022-08-16T09:57:22.796Z,5.35
2022-08-16T10:00:44.560Z,6.97
2022-08-16T10:03:24.711Z,6.25
2022-08-16T10:06:14.755Z,4.65
2022-08-16T10:09:11.237Z,4.53
2022-08-16T10:12:22.071Z,4.53
2022-08-16T10:15:15.858Z,5.53
2022-08-16T10:18:56.093Z,5.35
2022-08-16T10:21:19.342Z,4.68
2022-08-16T10:24:12.281Z,5.63
2022-08-16T10:27:27.149Z,5.10
2022-08-16T10:30:28.397Z,5.50
2022-08-16T10:33:18.791Z,5.45
2022-08-16T10:36:10.284Z,5.47
2022-08-16T10:39:01.284Z,5.47
2022-08-16T10:41:52.365Z,5.68
2022-08-16T10:44:42.941Z,4.28
2022-08-16T10:47:44.108Z,6.43
2022-08-16T10:50:34.211Z,6.50
2022-08-16T10:53:26.162Z,7.22
2022-08-16T10:56:52.218Z,7.50
2022-08-16T10:59:54.459Z,7.82
2022-08-16T11:03:41.635Z,5.15
2022-08-16T11:05:59.488Z,5.13
2022-08-16T11:09:21.010Z,5.07
2022-08-16T11:12:14.766Z,5.20
2022-08-16T11:15:13.540Z,4.85
2022-08-16T11:18:48.503Z,5.68
2022-08-16T11:21:28.644Z,5.65
2022-08-16T11:24:40.069Z,6.72
2022-08-16T11:27:32.797Z,6.78
2022-08-16T11:30:28.292Z,5.35
2022-08-16T11:36:38.625Z,5.20
2022-08-16T11:39:43.706Z,4.95
2022-08-16T11:42:37.538Z,4.90
2022-08-16T11:45:27.262Z,5.47
2022-08-16T11:48:23.655Z,6.10
2022-08-16T11:51:13.365Z,5.90
2022-08-16T11:54:05.083Z,7.25
2022-08-16T11:56:58.623Z,6.20
2022-08-16T11:59:48.888Z,5.72
2022-08-16T12:02:39.699Z,5.88
2022-08-16T12:05:36.600Z,6.10
2022-08-16T12:08:29.366Z,5.13
2022-08-16T12:11:19.753Z,6.43
2022-08-16T12:14:12.648Z,5.45
2022-08-16T12:17:04.655Z,6.32
2022-08-16T12:19:55.585Z,6.72
2022-08-16T12:22:47.107Z,6.53
2022-08-16T12:25:37.767Z,6.13
2022-08-16T12:28:52.124Z,6.28
2022-08-16T12:31:37.751Z,6.57
2022-08-16T12:34:50.421Z,6.18
2022-08-16T12:37:46.229Z,6.10
2022-08-16T12:40:41.873Z,5.82
2022-08-16T12:43:32.824Z,5.30
2022-08-16T12:46:22.252Z,5.82
2022-08-16T12:49:12.891Z,6.43
2022-08-16T12:52:02.744Z,6.07
2022-08-16T12:54:55.011Z,6.38
2022-08-16T12:57:45.838Z,6.35
2022-08-16T13:00:50.155Z,6.65
2022-08-16T13:03:42.313Z,9.43
2022-08-16T13:06:33.566Z,6.97
2022-08-16T13:09:29.050Z,7.65
2022-08-16T13:12:25.440Z,6.80
2022-08-16T13:15:18.707Z,7.22
2022-08-16T13:18:27.040Z,6.72
2022-08-16T13:21:24.166Z,8.00
2022-08-16T13:24:15.689Z,7.05
2022-08-16T13:27:06.914Z,7.05
2022-08-16T13:29:57.975Z,7.55
2022-08-16T13:32:52.132Z,8.65
2022-08-16T13:35:44.547Z,7.80
2022-08-16T13:38:37.984Z,7.45
2022-08-16T13:41:29.984Z,7.75
2022-08-16T13:44:20.889Z,9.25
2022-08-16T13:47:10.895Z,7.03
2022-08-16T13:50:05.531Z,6.88
2022-08-16T13:52:57.864Z,7.22
2022-08-16T13:55:48.827Z,9.30
2022-08-16T13:58:54.574Z,5.88
2022-08-16T14:01:45.754Z,6.20
2022-08-16T14:04:37.329Z,8.25
2022-08-16T14:07:27.492Z,6.68
2022-08-16T14:10:21.211Z,6.40
2022-08-16T14:13:19.747Z,6.20
2022-08-16T14:16:23.527Z,6.38
2022-08-16T14:19:19.543Z,6.40
2022-08-16T14:22:31.356Z,5.82
2022-08-16T14:25:27.568Z,5.95
2022-08-16T14:28:19.243Z,5.75
2022-08-16T14:31:13.089Z,5.75
2022-08-16T14:34:05.745Z,5.90
2022-08-16T14:37:02.594Z,5.20
2022-08-16T14:39:52.573Z,5.00
2022-08-16T14:42:44.215Z,5.15
2022-08-16T14:45:33.978Z,5.72
2022-08-16T14:48:25.954Z,5.15
2022-08-16T14:51:17.245Z,5.28
2022-08-16T14:54:11.339Z,6.40
2022-08-16T14:57:01.603Z,7.95
2022-08-16T14:59:53.741Z,7.30
2022-08-16T15:02:46.441Z,8.25
2022-08-16T15:05:39.038Z,8.98
2022-08-16T15:08:36.739Z,9.93
2022-08-16T15:11:26.974Z,9.18
2022-08-16T15:14:17.610Z,9.40
2022-08-16T15:17:11.532Z,8.80
2022-08-16T15:20:04.639Z,9.57
2022-08-16T15:23:00.962Z,8.38
2022-08-16T15:26:02.945Z,8.02
2022-08-16T15:28:56.042Z,7.70
2022-08-16T15:31:49.137Z,7.38
2022-08-16T15:34:50.954Z,7.70
2022-08-16T15:37:54.733Z,7.15
2022-08-16T15:40:58.555Z,7.57
2022-08-16T15:43:48.342Z,8.05
2022-08-16T15:47:02.943Z,6.95
2022-08-16T15:49:56.126Z,6.88
2022-08-16T15:52:46.250Z,7.40
2022-08-16T15:55:36.479Z,7.40
2022-08-16T15:58:35.021Z,7.28
2022-08-16T16:01:28.140Z,7.63
2022-08-16T16:04:22.980Z,8.25
2022-08-16T16:07:14.784Z,8.45
2022-08-16T16:10:13.408Z,8.25
2022-08-16T16:13:08.880Z,8.68
2022-08-16T16:16:01.820Z,8.45
2022-08-16T16:18:52.434Z,8.05
2022-08-16T16:21:42.100Z,7.80
2022-08-16T16:24:32.008Z,8.40
2022-08-16T16:27:27.957Z,7.18
2022-08-16T16:30:33.198Z,6.88
2022-08-16T16:33:30.911Z,7.40
2022-08-16T16:36:25.547Z,7.80
2022-08-16T16:39:18.021Z,8.85
2022-08-16T16:42:25.456Z,7.65
2022-08-16T16:45:23.464Z,8.93
2022-08-16T16:48:17.387Z,8.70
2022-08-16T16:51:10.126Z,8.93
2022-08-16T16:54:03.611Z,8.95
2022-08-16T16:56:53.842Z,8.70
2022-08-16T16:59:43.801Z,8.27
2022-08-16T17:02:46.180Z,8.80
2022-08-16T17:05:40.624Z,8.32
2022-08-16T17:08:29.819Z,8.18
2022-08-16T17:11:19.583Z,7.85
2022-08-16T17:14:27.591Z,8.88
2022-08-16T17:17:20.053Z,9.77
2022-08-16T17:20:12.855Z,9.63
2022-08-16T17:23:03.445Z,8.57
2022-08-16T17:25:54.053Z,8.30
2022-08-16T17:28:59.748Z,8.02
2022-08-16T17:31:51.697Z,8.13
2022-08-16T17:34:46.559Z,8.70
2022-08-16T17:37:51.228Z,8.02
2022-08-16T17:40:58.140Z,7.30
2022-08-16T17:43:48.116Z,7.28
2022-08-16T17:46:51.579Z,7.65
2022-08-16T17:49:45.204Z,8.13
2022-08-16T17:52:36.522Z,7.65
2022-08-16T17:55:42.561Z,8.00
2022-08-16T17:58:32.543Z,7.57
2022-08-16T18:01:25.489Z,7.65
2022-08-16T18:04:45.332Z,7.88
2022-08-16T18:07:25.538Z,8.65
2022-08-16T18:10:30.385Z,8.23
2022-08-16T18:13:23.731Z,8.93
2022-08-16T18:16:16.052Z,7.95
2022-08-16T18:19:05.601Z,8.48
2022-08-16T18:22:16.756Z,9.70
2022-08-16T18:25:07.771Z,7.95
2022-08-16T18:28:00.333Z,8.07
2022-08-16T18:30:51.970Z,7.75
2022-08-16T18:33:44.018Z,8.25
2022-08-16T18:36:34.758Z,7.43
2022-08-16T18:39:24.695Z,7.97
2022-08-16T18:42:16.336Z,8.07
2022-08-16T18:45:07.050Z,8.90
2022-08-16T18:47:56.315Z,8.77
2022-08-16T18:53:58.920Z,9.90
2022-08-16T18:56:56.850Z,9.95
2022-08-16T18:59:47.493Z,10.82
2022-08-16T19:02:56.159Z,10.60
2022-08-16T19:05:56.694Z,11.05
2022-08-16T19:08:46.926Z,10.45
2022-08-16T19:11:36.639Z,11.07
2022-08-16T19:14:31.346Z,11.43
2022-08-16T19:17:21.076Z,10.60
2022-08-16T19:20:11.691Z,11.38
2022-08-16T19:23:05.361Z,11.60
2022-08-16T19:26:02.521Z,11.30
2022-08-16T19:28:59.581Z,10.65
2022-08-16T19:31:49.504Z,11.40
2022-08-16T19:34:38.721Z,11.80
2022-08-16T19:37:28.642Z,10.10
2022-08-16T19:40:37.398Z,10.82
2022-08-16T19:43:27.141Z,10.68
2022-08-16T19:46:16.570Z,10.55
2022-08-16T19:49:07.366Z,10.98
2022-08-16T19:51:56.473Z,10.82
2022-08-16T19:54:46.923Z,10.20
2022-08-16T19:57:38.291Z,10.43
2022-08-16T20:00:35.477Z,10.60
2022-08-16T20:03:26.066Z,10.40
2022-08-16T20:06:32.108Z,9.93
2022-08-16T20:09:25.684Z,10.02
2022-08-16T20:12:26.503Z,9.50
2022-08-16T20:15:19.209Z,11.50
2022-08-16T20:18:21.476Z,12.00
2022-08-16T20:21:16.010Z,11.85
2022-08-16T20:24:32.806Z,12.55
2022-08-16T20:27:15.474Z,12.13
2022-08-16T20:30:07.446Z,12.50
2022-08-16T20:32:57.463Z,11.65
2022-08-16T20:35:49.974Z,12.02
2022-08-16T20:38:43.934Z,11.05
2022-08-16T20:41:33.899Z,11.27
2022-08-16T20:44:25.022Z,11.45
2022-08-16T20:47:17.846Z,12.00
2022-08-16T20:50:08.807Z,11.07
2022-08-16T20:52:58.707Z,11.63
2022-08-16T20:55:48.027Z,11.32
2022-08-16T20:58:38.785Z,11.15
2022-08-16T21:01:45.496Z,10.68
2022-08-16T21:04:36.680Z,11.38
2022-08-16T21:07:26.394Z,11.10
2022-08-16T21:10:15.527Z,11.40
2022-08-16T21:13:05.436Z,11.30
2022-08-16T21:16:03.990Z,10.70
2022-08-16T21:18:53.985Z,10.60
2022-08-16T21:21:43.431Z,11.05
2022-08-16T21:24:33.173Z,11.98
2022-08-16T21:27:24.347Z,11.52
2022-08-16T21:30:15.580Z,11.52
2022-08-16T21:33:15.664Z,12.82
2022-08-16T21:36:05.541Z,12.63
2022-08-16T21:38:57.495Z,13.65
2022-08-16T21:41:46.623Z,13.13
2022-08-16T21:44:38.872Z,13.07
2022-08-16T21:47:29.027Z,14.38
2022-08-16T21:50:20.885Z,13.90
2022-08-16T21:53:15.336Z,15.98
2022-08-16T21:56:06.038Z,14.85
2022-08-16T21:58:55.650Z,14.73
2022-08-16T22:01:45.840Z,17.80
2022-08-16T22:04:38.779Z,15.65
2022-08-16T22:07:28.951Z,15.90
2022-08-16T22:11:05.079Z,14.57
2022-08-16T22:13:29.551Z,15.02
2022-08-16T22:16:20.516Z,15.57
2022-08-16T22:19:10.900Z,14.57
2022-08-16T22:22:02.683Z,14.23
2022-08-16T22:24:51.990Z,13.82
2022-08-16T22:27:44.746Z,13.85
2022-08-16T22:30:34.749Z,13.15
2022-08-16T22:33:27.195Z,13.32
2022-08-16T22:36:17.156Z,13.30
2022-08-16T22:39:10.149Z,12.07
2022-08-16T22:42:00.268Z,11.88
2022-08-16T22:44:52.840Z,11.77
2022-08-16T22:47:43.090Z,10.77
2022-08-16T22:50:33.876Z,10.95
2022-08-16T22:53:23.772Z,10.10
2022-08-16T22:56:13.930Z,9.80
2022-08-16T22:59:03.235Z,10.60
2022-08-16T23:01:54.058Z,10.57
2022-08-16T23:04:43.915Z,10.52
2022-08-16T23:07:33.495Z,10.32
2022-08-16T23:10:24.072Z,9.43
2022-08-16T23:13:13.947Z,10.50
2022-08-16T23:16:10.851Z,10.65
2022-08-16T23:19:03.053Z,11.07
2022-08-16T23:21:54.182Z,9.80
2022-08-16T23:24:55.819Z,8.55
2022-08-16T23:27:47.039Z,7.70
2022-08-16T23:30:38.896Z,7.65
2022-08-16T23:33:30.889Z,6.47
2022-08-16T23:36:20.127Z,6.57
2022-08-16T23:39:13.468Z,5.65
2022-08-16T23:42:03.258Z,6.10
2022-08-16T23:44:58.277Z,6.00
2022-08-16T23:47:49.051Z,10.65
2022-08-16T23:50:40.210Z,7.57
2022-08-16T23:53:33.845Z,7.50
2022-08-16T23:56:24.167Z,7.57
2022-08-16T23:59:13.667Z,6.75
